Latest Coastal Weather Observations for Mornington Island Airport

IDQ60701

Issued at 6:01 am EST Friday 6 May 2016 (issued every 10 minutes, with the page automatically refreshed every 10 minutes)

About coastal observations | Map of coastal stations | Coastal observations for QLD | Marine services | Other Formats
Station Details ID: 029182 Name: MORNINGTON ISLAND AIRPORT Lat: -16.66 Lon: 139.17 Height: 9.0 m
Data from the previous 72 hours. | See also: Recent months at Mornington Island Airport
Date/Time
EST
Temp

°C
Wind Pressure Rain
since 9am
mm
Weather Cloud Vis
km
Sea
Height
m
Swell
Dir
 
Speed
knots
Gust
knots
hPa Trend Height
m
Period
s
Dir
06/06:00am 25.0 SSE 3 4 1011.2 - 0.0 - - - - - - -
06/05:30am 25.5 S 3 4 1011.1 - 0.0 - - - - - - -
06/05:00am 25.2 S 3 4 1010.7 - 0.0 - - - - - - -
06/04:30am 25.1 SSW 4 5 1010.6 - 0.0 - - - - - - -
06/04:00am 24.7 SSW 3 4 1010.4 - 0.0 - - - - - - -
06/03:30am 25.0 SSW 2 3 1010.4 - 0.0 - - - - - - -
06/03:00am 25.0 SW 2 3 1010.5 - 0.0 - - - - - - -
06/02:30am 25.0 CALM 0 0 1010.8 - 0.0 - - - - - - -
06/02:00am 25.0 CALM 0 0 1011.0 - 0.0 - - - - - - -
06/01:30am 25.0 CALM 0 0 1011.2 - 0.0 - - - - - - -
06/01:00am 25.2 CALM 0 0 1011.5 - 0.0 - - - - - - -
06/12:30am 25.3 CALM 0 2 1011.8 - 0.0 - - - - - - -
06/12:00am 25.5 NNE 2 3 1012.0 - 0.0 - - - - - - -
 
Date/Time
EST
Temp

°C
Wind Pressure Rain
since 9am
mm
Weather Cloud Vis
km
Sea
Height
m
Swell
Dir
 
Speed
knots
Gust
knots
hPa Trend Height
m
Period
s
Dir
05/11:30pm 25.7 NNE 2 3 1012.3 - 0.0 - - - - - - -
05/11:00pm 25.9 NNE 3 4 1012.7 - 0.0 - - - - - - -
05/10:30pm 25.9 NNE 4 5 1012.8 - 0.0 - - - - - - -
05/10:00pm 25.9 NNE 5 6 1012.9 - 0.0 - - - - - - -
05/09:30pm 25.8 NE 4 4 1013.0 - 0.0 - - - - - - -
05/09:00pm 26.1 NE 5 6 1012.8 - 0.0 - - - - - - -
05/08:30pm 26.0 NE 5 6 1012.5 - 0.0 - - - - - - -
05/08:00pm 26.3 ENE 4 5 1012.2 - 0.0 - - - - - - -
05/07:30pm 26.3 ENE 4 5 1011.9 - 0.0 - - - - - - -
05/07:00pm 26.7 NE 4 5 1011.5 - 0.0 - - - - - - -
05/06:30pm 27.3 NE 4 5 1011.3 - 0.0 - - - - - - -
05/06:00pm 28.2 NNE 4 6 1011.0 - 0.0 - - - - - - -
05/05:30pm 29.8 NNE 6 7 1010.7 - 0.0 - - - - - - -
05/05:00pm 30.1 NNE 5 7 1010.7 - 0.0 - - - - - - -
05/04:30pm 29.0 NNE 6 8 1010.6 - 0.0 - - - - - - -
05/04:00pm 27.1 NNE 6 9 1010.6 - 0.0 - - - - - - -
05/03:30pm 27.1 N 8 15 1010.7 - 0.0 - - - - - - -
05/03:00pm 28.5 N 8 12 1010.7 - 0.0 - - - - - - -
05/02:30pm 30.6 NW 8 11 1010.9 - 0.0 - - - - - - -
05/02:00pm 30.8 WNW 8 10 1011.3 - 0.0 - - - - - - -
05/01:30pm 32.9 NW 6 13 1011.5 - 0.0 - - - - - - -
05/01:00pm 32.6 E 7 9 1011.8 - 0.0 - - - - - - -
05/12:30pm 31.8 SE 7 11 1012.5 - 0.0 - - - - - - -
05/12:00pm 31.7 SE 8 10 1013.1 - 0.0 - - - - - - -
05/11:30am 31.7 SE 7 11 1013.5 - 0.0 - - - - - - -
05/11:00am 31.3 ESE 9 13 1013.9 - 0.0 - - - - - - -
05/10:30am 31.3 ESE 10 14 1014.4 - 0.0 - - - - - - -
05/10:00am 30.6 ESE 11 14 1014.4 - 0.0 - - - - - - -
05/09:30am 30.4 ESE 11 16 1014.1 - 0.0 - - - - - - -
05/09:00am 29.8 SE 8 12 1014.0 - 0.0 - - - - - - -
05/08:30am 29.0 SE 8 12 1013.7 - 0.0 - - - - - - -
05/08:00am 28.3 SE 9 13 1013.5 - 0.0 - - - - - - -
05/07:30am 27.7 SE 8 11 1013.3 - 0.0 - - - - - - -
05/07:00am 27.4 SE 8 11 1013.0 - 0.0 - - - - - - -
05/06:30am 27.5 SE 7 11 1012.8 - 0.0 - - - - - - -
05/06:00am 27.6 SE 8 11 1012.4 - 0.0 - - - - - - -
05/05:30am 27.9 SE 9 13 1012.2 - 0.0 - - - - - - -
05/05:00am 28.1 SE 8 13 1012.1 - 0.0 - - - - - - -
05/04:30am 28.3 SE 10 14 1012.1 - 0.0 - - - - - - -
05/04:00am 28.3 SE 10 14 1012.1 - 0.0 - - - - - - -
05/03:30am 28.2 SE 9 13 1012.1 - 0.0 - - - - - - -
05/03:00am 28.4 SE 9 13 1012.3 - 0.0 - - - - - - -
05/02:30am 28.4 SE 8 13 1012.4 - 0.0 - - - - - - -
05/02:00am 28.4 SSE 8 11 1012.6 - 0.0 - - - - - - -
05/01:30am 28.5 SE 7 11 1012.7 - 0.0 - - - - - - -
05/01:00am 28.5 SE 8 12 1013.0 - 0.0 - - - - - - -
05/12:30am 27.1 SSE 6 8 1013.0 - 0.0 - - - - - - -
05/12:00am 25.4 S 3 4 1013.2 - 0.0 - - - - - - -
 
Date/Time
EST
Temp

°C
Wind Pressure Rain
since 9am
mm
Weather Cloud Vis
km
Sea
Height
m
Swell
Dir
 
Speed
knots
Gust
knots
hPa Trend Height
m
Period
s
Dir
04/11:30pm 25.1 S 4 5 1013.3 - 0.0 - - - - - - -
04/11:00pm 25.1 CALM 0 0 1013.1 - 0.0 - - - - - - -
04/10:30pm 25.5 CALM 0 0 1013.2 - 0.0 - - - - - - -
04/10:00pm 25.7 CALM 0 0 1013.1 - 0.0 - - - - - - -
04/09:30pm 25.7 CALM 0 0 1013.0 - 0.0 - - - - - - -
04/09:00pm 26.3 ENE 3 3 1012.8 - 0.0 - - - - - - -
04/08:30pm 26.4 ENE 3 4 1012.5 - 0.0 - - - - - - -
04/08:00pm 26.8 ENE 3 4 1012.2 - 0.0 - - - - - - -
04/07:30pm 27.4 ENE 1 3 1011.8 - 0.0 - - - - - - -
04/07:00pm 28.3 ENE 3 4 1011.5 - 0.0 - - - - - - -
04/06:30pm 29.0 E 4 6 1011.3 - 0.0 - - - - - - -
04/06:00pm 29.9 E 7 11 1011.0 - 0.0 - - - - - - -
04/05:30pm 30.0 ESE 8 13 1010.8 - 0.0 - - - - - - -
04/05:00pm 30.7 ESE 9 13 1010.8 - 0.0 - - - - - - -
04/04:30pm 31.2 ESE 10 15 1010.7 - 0.0 - - - - - - -
04/04:00pm 30.9 ESE 11 15 1010.8 - 0.0 - - - - - - -
04/03:30pm 30.7 SE 11 16 1010.7 - 0.0 - - - - - - -
04/03:00pm 30.7 SE 11 16 1011.0 - 0.0 - - - - - - -
04/02:30pm 31.9 SE 10 16 1011.4 - 0.0 - - - - - - -
04/02:00pm 31.6 SE 12 16 1011.8 - 0.0 - - - - - - -
04/01:30pm 31.3 SSE 11 17 1012.2 - 0.0 - - - - - - -
04/01:00pm 30.7 SE 11 16 1012.7 - 0.0 - - - - - - -
04/12:30pm 31.0 SE 11 17 1013.0 - 0.0 - - - - - - -
04/12:00pm 30.2 SE 11 17 1013.4 - 0.0 - - - - - - -
04/11:30am 30.0 SE 11 17 1013.8 - 0.0 - - - - - - -
04/11:00am 29.9 SE 11 19 1014.1 - 0.0 - - - - - - -
04/10:30am 29.4 SE 12 19 1014.3 - 0.0 - - - - - - -
04/10:00am 29.5 SSE 12 18 1014.3 - 0.0 - - - - - - -
04/09:30am 28.8 SE 11 21 1014.1 - 0.0 - - - - - - -
04/09:00am 29.2 SE 12 19 1013.7 - 0.0 - - - - - - -
04/08:30am 28.8 SSE 11 18 1013.5 - 0.0 - - - - - - -
04/08:00am 28.8 SE 12 18 1013.1 - 0.0 - - - - - - -
04/07:30am 28.6 SSE 10 15 1013.1 - 0.0 - - - - - - -
04/07:00am 28.5 SE 10 15 1012.6 - 0.0 - - - - - - -
04/06:30am 28.4 SE 10 16 1012.3 - 0.0 - - - - - - -
04/06:00am 28.7 SE 12 17 1011.9 - 0.0 - - - - - - -
04/05:30am 28.6 SE 10 15 1011.7 - 0.0 - - - - - - -
04/05:00am 29.0 SE 10 15 1011.6 - 0.0 - - - - - - -
04/04:30am 29.2 SE 11 16 1011.7 - 0.0 - - - - - - -
04/04:00am 29.3 SE 11 16 1011.7 - 0.0 - - - - - - -
04/03:30am 29.4 SSE 9 16 1011.8 - 0.0 - - - - - - -
04/03:00am 29.5 SSE 10 16 1012.0 - 0.0 - - - - - - -
04/02:30am 29.3 SSE 9 15 1012.2 - 0.0 - - - - - - -
04/02:00am 29.1 SSE 7 13 1012.4 - 0.0 - - - - - - -
04/01:30am 29.1 SSE 7 13 1012.5 - 0.0 - - - - - - -
04/01:00am 28.5 S 6 12 1012.8 - 0.0 - - - - - - -
04/12:30am 29.0 SW 5 9 1013.2 - 0.0 - - - - - - -
04/12:00am 29.1 WSW 5 8 1013.3 - 0.0 - - - - - - -
 
Date/Time
EST
Temp

°C
Wind Pressure Rain
since 9am
mm
Weather Cloud Vis
km
Sea
Height
m
Swell
Dir
 
Speed
knots
Gust
knots
hPa Trend Height
m
Period
s
Dir
03/11:30pm 29.1 W 5 7 1013.3 - 0.0 - - - - - - -
03/11:00pm 28.9 W 5 7 1013.3 - 0.0 - - - - - - -
03/10:30pm 28.6 WNW 4 5 1013.6 - 0.0 - - - - - - -
03/10:00pm 28.2 NW 2 4 1013.6 - 0.0 - - - - - - -
03/09:30pm 27.7 NNW 2 3 1013.6 - 0.0 - - - - - - -
03/09:00pm 28.2 NW 4 4 1013.2 - 0.0 - - - - - - -
03/08:30pm 28.3 NNW 4 4 1012.9 - 0.0 - - - - - - -
03/08:00pm 27.9 NNW 5 6 1012.4 - 0.0 - - - - - - -
03/07:30pm 27.9 NNW 4 5 1011.7 - 0.0 - - - - - - -
03/07:00pm 28.2 N 5 7 1011.1 - 0.0 - - - - - - -
03/06:30pm 28.7 NNE 5 7 1010.9 - 0.0 - - - - - - -
03/06:00pm 29.6 N 6 8 1010.7 - 0.0 - - - - - - -
03/05:30pm 30.5 N 6 7 1010.6 - 0.0 - - - - - - -
03/05:00pm 31.6 NNE 5 8 1010.5 - 0.0 - - - - - - -
03/04:30pm 32.4 NNE 5 6 1010.5 - 0.0 - - - - - - -
03/04:00pm 32.0 NE 7 9 1010.5 - 0.0 - - - - - - -
03/03:30pm 31.2 NE 11 15 1010.8 - 0.0 - - - - - - -
03/03:00pm 33.6 NW 4 7 1011.2 - 0.0 - - - - - - -
03/02:30pm 32.8 SW 5 7 1011.3 - 0.0 - - - - - - -
03/02:00pm 32.2 SE 6 8 1011.6 - 0.0 - - - - - - -
03/01:30pm 32.2 SSE 6 9 1011.7 - 0.0 - - - - - - -
03/01:00pm 32.1 SSE 6 9 1012.3 - 0.0 - - - - - - -
03/12:30pm 31.1 SE 7 10 1012.7 - 0.0 - - - - - - -
03/12:00pm 31.3 SE 7 10 1013.1 - 0.0 - - - - - - -
03/11:30am 31.5 SE 8 12 1013.8 - 0.0 - - - - - - -
03/11:00am 31.6 SSE 7 10 1014.2 - 0.0 - - - - - - -
03/10:30am 31.6 SSE 6 8 1014.5 - 0.0 - - - - - - -
03/10:00am 31.4 S 5 10 1014.4 - 0.0 - - - - - - -
03/09:30am 29.9 SW 5 7 1014.1 - 0.0 - - - - - - -
03/09:00am 29.5 SW 6 9 1013.6 - 0.0 - - - - - - -
03/08:30am 29.3 WSW 5 9 1013.3 - 0.0 - - - - - - -
03/08:00am 28.5 WSW 5 8 1013.0 - 0.0 - - - - - - -
03/07:30am 28.0 SW 5 8 1012.9 - 0.0 - - - - - - -
03/07:00am 27.7 WSW 7 11 1012.8 - 0.0 - - - - - - -
03/06:30am 27.6 WSW 7 10 1012.6 - 0.0 - - - - - - -

Other Formats:

Comma delimited format used in spreadsheet applications
http://www.bom.gov.au/fwo/IDQ60701/IDQ60701.94254.axf

JavaScript Object Notation format (JSON) in row-major order
http://www.bom.gov.au/fwo/IDQ60701/IDQ60701.94254.json